sensor_id;sensor_type;location;lat;lon;timestamp;pressure;altitude;pressure_sealevel;temperature;humidity
24666;BME280;29726;53.532;-1.478;2022-10-26T00:13:21;99257.00;;;20.22;nan
24666;BME280;29726;53.532;-1.478;2022-10-26T00:15:46;99249.03;;;20.21;nan
24666;BME280;29726;53.532;-1.478;2022-10-26T00:32:43;99234.28;;;20.15;nan
24666;BME280;29726;53.532;-1.478;2022-10-26T00:35:08;99238.44;;;20.14;nan
24666;BME280;29726;53.532;-1.478;2022-10-26T00:37:34;99232.78;;;20.14;nan
24666;BME280;29726;53.532;-1.478;2022-10-26T00:39:59;99229.75;;;20.12;nan
24666;BME280;29726;53.532;-1.478;2022-10-26T00:42:24;99216.13;;;20.10;nan
24666;BME280;29726;53.532;-1.478;2022-10-26T00:47:42;99204.06;;;20.10;nan
24666;BME280;29726;53.532;-1.478;2022-10-26T01:02:22;99191.94;;;20.02;nan
24666;BME280;29726;53.532;-1.478;2022-10-26T01:07:13;99186.28;;;20.02;nan
24666;BME280;29726;53.532;-1.478;2022-10-26T01:09:38;99183.22;;;20.00;nan
24666;BME280;29726;53.532;-1.478;2022-10-26T01:25:02;99154.31;;;19.94;nan
24666;BME280;29726;53.532;-1.478;2022-10-26T01:51:01;99170.75;;;19.88;nan
24666;BME280;29726;53.532;-1.478;2022-10-26T02:04:12;99096.69;;;19.84;nan
24666;BME280;29726;53.532;-1.478;2022-10-26T02:12:43;99090.66;;;19.80;nan
24666;BME280;29726;53.532;-1.478;2022-10-26T02:17:50;99090.66;;;19.80;nan
24666;BME280;29726;53.532;-1.478;2022-10-26T02:52:35;99049.13;;;19.75;nan
24666;BME280;29726;53.532;-1.478;2022-10-26T03:04:49;99044.59;;;19.72;nan
24666;BME280;29726;53.532;-1.478;2022-10-26T03:12:15;99026.09;;;19.71;nan
24666;BME280;29726;53.532;-1.478;2022-10-26T03:21:56;99016.28;;;19.72;nan
24666;BME280;29726;53.532;-1.478;2022-10-26T03:26:47;99014.00;;;19.70;nan
24666;BME280;29726;53.532;-1.478;2022-10-26T03:34:03;99014.00;;;19.70;nan
24666;BME280;29726;53.532;-1.478;2022-10-26T03:36:28;99012.50;;;19.69;nan
24666;BME280;29726;53.532;-1.478;2022-10-26T03:38:53;99006.81;;;19.69;nan
24666;BME280;29726;53.532;-1.478;2022-10-26T03:58:16;98989.09;;;19.69;nan
24666;BME280;29726;53.532;-1.478;2022-10-26T04:00:41;98999.66;;;19.68;nan
24666;BME280;29726;53.532;-1.478;2022-10-26T04:24:57;98974.34;;;19.70;nan
24666;BME280;29726;53.532;-1.478;2022-10-26T04:27:22;98973.63;;;19.70;nan
24666;BME280;29726;53.532;-1.478;2022-10-26T04:39:29;98960.19;;;19.70;nan
24666;BME280;29726;53.532;-1.478;2022-10-26T04:44:19;98964.94;;;19.68;nan
24666;BME280;29726;53.532;-1.478;2022-10-26T04:49:10;98962.47;;;19.72;nan
24666;BME280;29726;53.532;-1.478;2022-10-26T04:54:01;98966.03;;;19.72;nan
24666;BME280;29726;53.532;-1.478;2022-10-26T05:10:59;98954.34;;;19.76;nan
24666;BME280;29726;53.532;-1.478;2022-10-26T05:18:18;98967.19;;;19.77;nan
24666;BME280;29726;53.532;-1.478;2022-10-26T05:30:28;98968.69;;;19.78;nan
24666;BME280;29726;53.532;-1.478;2022-10-26T05:32:59;98970.19;;;19.79;nan
24666;BME280;29726;53.532;-1.478;2022-10-26T05:37:51;98991.72;;;19.82;nan
24666;BME280;29726;53.532;-1.478;2022-10-26T05:40:17;98968.31;;;19.81;nan
24666;BME280;29726;53.532;-1.478;2022-10-26T05:52:28;98979.84;;;19.83;nan
24666;BME280;29726;53.532;-1.478;2022-10-26T06:09:41;98966.03;;;19.87;nan
24666;BME280;29726;53.532;-1.478;2022-10-26T06:18:19;98984.53;;;19.88;nan
24666;BME280;29726;53.532;-1.478;2022-10-26T07:03:43;99031.78;;;19.86;nan
24666;BME280;29726;53.532;-1.478;2022-10-26T07:10:59;99053.28;;;19.81;nan
24666;BME280;29726;53.532;-1.478;2022-10-26T07:13:25;99048.00;;;19.85;nan
24666;BME280;29726;53.532;-1.478;2022-10-26T07:15:50;99056.31;;;19.83;nan
24666;BME280;29726;53.532;-1.478;2022-10-26T07:18:15;99062.72;;;19.84;nan
24666;BME280;29726;53.532;-1.478;2022-10-26T07:25:35;99055.53;;;19.83;nan
24666;BME280;29726;53.532;-1.478;2022-10-26T07:30:29;99056.31;;;19.83;nan
24666;BME280;29726;53.532;-1.478;2022-10-26T07:42:39;99040.81;;;19.84;nan
24666;BME280;29726;53.532;-1.478;2022-10-26T07:45:05;99043.09;;;19.86;nan
24666;BME280;29726;53.532;-1.478;2022-10-26T07:47:30;99051.00;;;19.87;nan
24666;BME280;29726;53.532;-1.478;2022-10-26T07:59:37;99011.19;;;19.93;nan
24666;BME280;29726;53.532;-1.478;2022-10-26T08:02:02;98998.53;;;19.94;nan
24666;BME280;29726;53.532;-1.478;2022-10-26T08:04:28;98989.44;;;19.95;nan
24666;BME280;29726;53.532;-1.478;2022-10-26T08:06:53;99008.72;;;19.97;nan
24666;BME280;29726;53.532;-1.478;2022-10-26T08:09:18;99034.38;;;19.99;nan
24666;BME280;29726;53.532;-1.478;2022-10-26T08:19:04;99075.22;;;20.03;nan
24666;BME280;29726;53.532;-1.478;2022-10-26T08:26:20;99084.66;;;20.06;nan
24666;BME280;29726;53.532;-1.478;2022-10-26T08:31:12;99113.38;;;20.10;nan
24666;BME280;29726;53.532;-1.478;2022-10-26T08:33:38;99113.38;;;20.10;nan
24666;BME280;29726;53.532;-1.478;2022-10-26T08:38:29;99088.81;;;20.12;nan
24666;BME280;29726;53.532;-1.478;2022-10-26T08:40:56;99106.59;;;20.13;nan
24666;BME280;29726;53.532;-1.478;2022-10-26T08:45:57;99113.75;;;20.14;nan
24666;BME280;29726;53.532;-1.478;2022-10-26T08:50:54;99133.78;;;20.16;nan
24666;BME280;29726;53.532;-1.478;2022-10-26T09:03:29;99135.66;;;20.21;nan
24666;BME280;29726;53.532;-1.478;2022-10-26T09:08:31;99132.28;;;20.22;nan
24666;BME280;29726;53.532;-1.478;2022-10-26T09:24:12;99150.03;;;20.37;nan
24666;BME280;29726;53.532;-1.478;2022-10-26T09:26:55;99139.06;;;20.41;nan
24666;BME280;29726;53.532;-1.478;2022-10-26T09:31:54;99138.28;;;20.48;nan
24666;BME280;29726;53.532;-1.478;2022-10-26T09:34:41;99141.50;;;20.52;nan
24666;BME280;29726;53.532;-1.478;2022-10-26T09:39:59;99144.34;;;20.60;nan
24666;BME280;29726;53.532;-1.478;2022-10-26T09:45:35;99167.97;;;20.70;nan
24666;BME280;29726;53.532;-1.478;2022-10-26T09:48:10;99174.19;;;20.76;nan
24666;BME280;29726;53.532;-1.478;2022-10-26T09:58:01;99185.50;;;20.98;nan
24666;BME280;29726;53.532;-1.478;2022-10-26T10:00:28;99178.31;;;21.05;nan
24666;BME280;29726;53.532;-1.478;2022-10-26T10:07:47;99187.72;;;21.22;nan
24666;BME280;29726;53.532;-1.478;2022-10-26T10:10:19;99208.53;;;21.25;nan
24666;BME280;29726;53.532;-1.478;2022-10-26T10:12:47;99197.53;;;21.36;nan
24666;BME280;29726;53.532;-1.478;2022-10-26T10:15:24;99206.56;;;21.42;nan
24666;BME280;29726;53.532;-1.478;2022-10-26T10:20:20;99198.56;;;21.56;nan
24666;BME280;29726;53.532;-1.478;2022-10-26T10:23:12;99205.75;;;21.64;nan
24666;BME280;29726;53.532;-1.478;2022-10-26T10:26:00;99213.69;;;21.73;nan
24666;BME280;29726;53.532;-1.478;2022-10-26T10:28:27;99212.13;;;21.80;nan
24666;BME280;29726;53.532;-1.478;2022-10-26T10:31:01;99214.75;;;21.85;nan
24666;BME280;29726;53.532;-1.478;2022-10-26T10:33:39;99246.75;;;21.93;nan
24666;BME280;29726;53.532;-1.478;2022-10-26T10:36:08;99213.34;;;22.01;nan
24666;BME280;29726;53.532;-1.478;2022-10-26T10:38:43;99222.56;;;22.09;nan
24666;BME280;29726;53.532;-1.478;2022-10-26T10:41:18;99211.16;;;22.16;nan
24666;BME280;29726;53.532;-1.478;2022-10-26T10:43:52;99214.94;;;22.19;nan
24666;BME280;29726;53.532;-1.478;2022-10-26T10:46:21;99226.63;;;22.30;nan
24666;BME280;29726;53.532;-1.478;2022-10-26T10:48:53;99240.59;;;22.36;nan
24666;BME280;29726;53.532;-1.478;2022-10-26T10:53:54;99244.34;;;22.46;nan
24666;BME280;29726;53.532;-1.478;2022-10-26T11:05:05;99265.47;;;22.60;nan
24666;BME280;29726;53.532;-1.478;2022-10-26T11:08:22;99269.25;;;22.62;nan
24666;BME280;29726;53.532;-1.478;2022-10-26T11:11:09;99285.94;;;22.66;nan
24666;BME280;29726;53.532;-1.478;2022-10-26T11:13:56;99266.19;;;22.68;nan
24666;BME280;29726;53.532;-1.478;2022-10-26T11:16:32;99253.47;;;22.69;nan
24666;BME280;29726;53.532;-1.478;2022-10-26T11:19:17;99246.44;;;22.70;nan
24666;BME280;29726;53.532;-1.478;2022-10-26T11:21:49;99277.91;;;22.72;nan
24666;BME280;29726;53.532;-1.478;2022-10-26T11:24:26;99263.28;;;22.75;nan
24666;BME280;29726;53.532;-1.478;2022-10-26T11:27:13;99277.50;;;22.75;nan
24666;BME280;29726;53.532;-1.478;2022-10-26T11:43:13;99299.75;;;22.94;nan
24666;BME280;29726;53.532;-1.478;2022-10-26T11:45:44;99292.13;;;22.96;nan
24666;BME280;29726;53.532;-1.478;2022-10-26T11:48:35;99302.75;;;22.96;nan
24666;BME280;29726;53.532;-1.478;2022-10-26T11:51:02;99317.50;;;23.02;nan
24666;BME280;29726;53.532;-1.478;2022-10-26T11:56:04;99325.06;;;23.07;nan
24666;BME280;29726;53.532;-1.478;2022-10-26T12:03:37;99350.47;;;23.12;nan
24666;BME280;29726;53.532;-1.478;2022-10-26T12:06:06;99330.72;;;23.14;nan
24666;BME280;29726;53.532;-1.478;2022-10-26T12:08:38;99337.19;;;23.15;nan
24666;BME280;29726;53.532;-1.478;2022-10-26T12:14:13;99351.94;;;23.21;nan
24666;BME280;29726;53.532;-1.478;2022-10-26T12:19:30;99364.00;;;23.29;nan
24666;BME280;29726;53.532;-1.478;2022-10-26T12:21:59;99373.47;;;23.31;nan
24666;BME280;29726;53.532;-1.478;2022-10-26T12:24:29;99385.22;;;23.35;nan
24666;BME280;29726;53.532;-1.478;2022-10-26T12:27:01;99379.13;;;23.39;nan
24666;BME280;29726;53.532;-1.478;2022-10-26T12:41:55;99390.72;;;23.58;nan
24666;BME280;29726;53.532;-1.478;2022-10-26T12:52:40;99406.94;;;23.72;nan
24666;BME280;29726;53.532;-1.478;2022-10-26T13:00:32;99422.03;;;23.82;nan
24666;BME280;29726;53.532;-1.478;2022-10-26T13:08:22;99407.88;;;23.91;nan
24666;BME280;29726;53.532;-1.478;2022-10-26T13:11:01;99419.63;;;23.95;nan
24666;BME280;29726;53.532;-1.478;2022-10-26T13:13:29;99443.94;;;23.96;nan
24666;BME280;29726;53.532;-1.478;2022-10-26T13:15:57;99425.66;;;23.99;nan
24666;BME280;29726;53.532;-1.478;2022-10-26T13:18:24;99430.22;;;24.02;nan
24666;BME280;29726;53.532;-1.478;2022-10-26T13:23:29;99454.88;;;24.07;nan
24666;BME280;29726;53.532;-1.478;2022-10-26T13:26:16;99455.19;;;24.11;nan
24666;BME280;29726;53.532;-1.478;2022-10-26T13:28:56;99460.50;;;24.15;nan
24666;BME280;29726;53.532;-1.478;2022-10-26T13:34:17;99447.91;;;24.18;nan
24666;BME280;29726;53.532;-1.478;2022-10-26T13:39:56;99470.66;;;24.25;nan
24666;BME280;29726;53.532;-1.478;2022-10-26T13:42:32;99467.97;;;24.27;nan
24666;BME280;29726;53.532;-1.478;2022-10-26T13:45:10;99470.06;;;24.27;nan
24666;BME280;29726;53.532;-1.478;2022-10-26T13:47:45;99480.44;;;24.32;nan
24666;BME280;29726;53.532;-1.478;2022-10-26T13:50:18;99475.06;;;24.36;nan
24666;BME280;29726;53.532;-1.478;2022-10-26T13:52:49;99483.81;;;24.38;nan
24666;BME280;29726;53.532;-1.478;2022-10-26T13:58:24;99477.69;;;24.41;nan
24666;BME280;29726;53.532;-1.478;2022-10-26T14:01:13;99503.53;;;24.43;nan
24666;BME280;29726;53.532;-1.478;2022-10-26T14:03:40;99500.84;;;24.45;nan
24666;BME280;29726;53.532;-1.478;2022-10-26T14:06:21;99503.13;;;24.47;nan
24666;BME280;29726;53.532;-1.478;2022-10-26T14:08:50;99499.69;;;24.48;nan
24666;BME280;29726;53.532;-1.478;2022-10-26T14:13:47;99514.13;;;24.50;nan
24666;BME280;29726;53.532;-1.478;2022-10-26T14:16:16;99528.22;;;24.48;nan
24666;BME280;29726;53.532;-1.478;2022-10-26T14:18:47;99524.03;;;24.49;nan
24666;BME280;29726;53.532;-1.478;2022-10-26T14:21:18;99528.97;;;24.49;nan
24666;BME280;29726;53.532;-1.478;2022-10-26T14:23:53;99534.69;;;24.49;nan
24666;BME280;29726;53.532;-1.478;2022-10-26T14:26:25;99534.69;;;24.49;nan
24666;BME280;29726;53.532;-1.478;2022-10-26T14:28:53;99524.59;;;24.48;nan
24666;BME280;29726;53.532;-1.478;2022-10-26T14:31:22;99528.97;;;24.49;nan
24666;BME280;29726;53.532;-1.478;2022-10-26T14:33:48;99522.53;;;24.48;nan
24666;BME280;29726;53.532;-1.478;2022-10-26T14:36:14;99523.25;;;24.49;nan
24666;BME280;29726;53.532;-1.478;2022-10-26T14:41:13;99529.75;;;24.49;nan
24666;BME280;29726;53.532;-1.478;2022-10-26T14:43:40;99523.25;;;24.49;nan
24666;BME280;29726;53.532;-1.478;2022-10-26T14:46:05;99530.47;;;24.50;nan
24666;BME280;29726;53.532;-1.478;2022-10-26T14:48:36;99518.72;;;24.46;nan
24666;BME280;29726;53.532;-1.478;2022-10-26T14:56:15;99530.47;;;24.50;nan
24666;BME280;29726;53.532;-1.478;2022-10-26T14:58:41;99544.22;;;24.51;nan
24666;BME280;29726;53.532;-1.478;2022-10-26T15:07:21;99548.22;;;24.48;nan
24666;BME280;29726;53.532;-1.478;2022-10-26T15:12:31;99572.75;;;24.51;nan
24666;BME280;29726;53.532;-1.478;2022-10-26T15:17:37;99574.63;;;24.49;nan
24666;BME280;29726;53.532;-1.478;2022-10-26T15:20:06;99573.91;;;24.48;nan
24666;BME280;29726;53.532;-1.478;2022-10-26T15:25:01;99575.81;;;24.46;nan
24666;BME280;29726;53.532;-1.478;2022-10-26T15:30:17;99582.25;;;24.46;nan
24666;BME280;29726;53.532;-1.478;2022-10-26T15:32:43;99580.00;;;24.45;nan
24666;BME280;29726;53.532;-1.478;2022-10-26T15:37:44;99588.41;;;24.43;nan
24666;BME280;29726;53.532;-1.478;2022-10-26T15:42:37;99606.09;;;24.41;nan
24666;BME280;29726;53.532;-1.478;2022-10-26T15:45:04;99597.53;;;24.41;nan
24666;BME280;29726;53.532;-1.478;2022-10-26T15:47:32;99608.94;;;24.41;nan
24666;BME280;29726;53.532;-1.478;2022-10-26T15:54:49;99612.81;;;24.36;nan
24666;BME280;29726;53.532;-1.478;2022-10-26T15:57:14;99622.72;;;24.35;nan
24666;BME280;29726;53.532;-1.478;2022-10-26T15:59:40;99618.19;;;24.32;nan
24666;BME280;29726;53.532;-1.478;2022-10-26T16:02:24;99633.63;;;24.29;nan
24666;BME280;29726;53.532;-1.478;2022-10-26T16:07:15;99626.22;;;24.26;nan
24666;BME280;29726;53.532;-1.478;2022-10-26T16:09:41;99643.34;;;24.26;nan
24666;BME280;29726;53.532;-1.478;2022-10-26T16:17:03;99689.03;;;24.19;nan
24666;BME280;29726;53.532;-1.478;2022-10-26T16:19:28;99668.13;;;24.16;nan
24666;BME280;29726;53.532;-1.478;2022-10-26T16:21:53;99668.13;;;24.16;nan
24666;BME280;29726;53.532;-1.478;2022-10-26T16:26:44;99678.44;;;24.12;nan
24666;BME280;29726;53.532;-1.478;2022-10-26T16:29:10;99678.84;;;24.08;nan
24666;BME280;29726;53.532;-1.478;2022-10-26T16:31:35;99692.94;;;24.06;nan
24666;BME280;29726;53.532;-1.478;2022-10-26T16:34:01;99697.13;;;24.05;nan
24666;BME280;29726;53.532;-1.478;2022-10-26T16:36:26;99693.34;;;24.03;nan
24666;BME280;29726;53.532;-1.478;2022-10-26T16:38:52;99694.50;;;24.00;nan
24666;BME280;29726;53.532;-1.478;2022-10-26T16:41:17;99705.13;;;23.99;nan
24666;BME280;29726;53.532;-1.478;2022-10-26T16:43:44;99706.28;;;23.96;nan
24666;BME280;29726;53.532;-1.478;2022-10-26T16:46:16;99722.50;;;23.94;nan
24666;BME280;29726;53.532;-1.478;2022-10-26T16:51:15;99735.63;;;23.89;nan
24666;BME280;29726;53.532;-1.478;2022-10-26T16:53:41;99739.03;;;23.88;nan
24666;BME280;29726;53.532;-1.478;2022-10-26T16:56:11;99743.22;;;23.87;nan
24666;BME280;29726;53.532;-1.478;2022-10-26T16:58:38;99737.94;;;23.83;nan
24666;BME280;29726;53.532;-1.478;2022-10-26T17:01:05;99732.59;;;23.80;nan
24666;BME280;29726;53.532;-1.478;2022-10-26T17:03:31;99744.78;;;23.80;nan
24666;BME280;29726;53.532;-1.478;2022-10-26T17:06:05;99744.38;;;23.76;nan
24666;BME280;29726;53.532;-1.478;2022-10-26T17:08:32;99723.53;;;23.67;nan
24666;BME280;29726;53.532;-1.478;2022-10-26T17:11:17;99752.03;;;23.74;nan
24666;BME280;29726;53.532;-1.478;2022-10-26T17:13:43;99759.63;;;23.72;nan
24666;BME280;29726;53.532;-1.478;2022-10-26T17:18:40;99762.28;;;23.70;nan
24666;BME280;29726;53.532;-1.478;2022-10-26T17:23:31;99764.59;;;23.64;nan
24666;BME280;29726;53.532;-1.478;2022-10-26T17:26:01;99780.19;;;23.63;nan
24666;BME280;29726;53.532;-1.478;2022-10-26T17:31:07;99771.09;;;23.57;nan
24666;BME280;29726;53.532;-1.478;2022-10-26T17:38:25;99781.75;;;23.49;nan
24666;BME280;29726;53.532;-1.478;2022-10-26T17:40:50;99796.59;;;23.47;nan
24666;BME280;29726;53.532;-1.478;2022-10-26T17:43:15;99803.44;;;23.44;nan
24666;BME280;29726;53.532;-1.478;2022-10-26T17:45:41;99808.34;;;23.44;nan
24666;BME280;29726;53.532;-1.478;2022-10-26T17:48:06;99811.75;;;23.42;nan
24666;BME280;29726;53.532;-1.478;2022-10-26T17:50:31;99798.50;;;23.37;nan
24666;BME280;29726;53.532;-1.478;2022-10-26T17:55:22;99832.31;;;23.33;nan
24666;BME280;29726;53.532;-1.478;2022-10-26T17:57:50;99818.44;;;23.30;nan
24666;BME280;29726;53.532;-1.478;2022-10-26T18:00:15;99902.00;;;23.32;nan
24666;BME280;29726;53.532;-1.478;2022-10-26T18:02:42;99942.84;;;23.20;nan
24666;BME280;29726;53.532;-1.478;2022-10-26T18:05:08;99921.34;;;23.04;nan
24666;BME280;29726;53.532;-1.478;2022-10-26T18:07:33;99914.47;;;22.84;nan
24666;BME280;29726;53.532;-1.478;2022-10-26T18:09:59;99911.25;;;22.80;nan
24666;BME280;29726;53.532;-1.478;2022-10-26T18:12:24;99913.53;;;22.74;nan
24666;BME280;29726;53.532;-1.478;2022-10-26T18:14:50;99912.91;;;22.68;nan
24666;BME280;29726;53.532;-1.478;2022-10-26T18:17:15;99917.88;;;22.68;nan
24666;BME280;29726;53.532;-1.478;2022-10-26T18:19:40;99932.66;;;22.66;nan
24666;BME280;29726;53.532;-1.478;2022-10-26T18:22:06;99939.47;;;22.63;nan
24666;BME280;29726;53.532;-1.478;2022-10-26T18:24:31;99934.91;;;22.60;nan
24666;BME280;29726;53.532;-1.478;2022-10-26T18:26:56;99944.78;;;22.59;nan
24666;BME280;29726;53.532;-1.478;2022-10-26T18:29:22;99944.38;;;22.55;nan
24666;BME280;29726;53.532;-1.478;2022-10-26T18:31:48;99947.03;;;22.53;nan
24666;BME280;29726;53.532;-1.478;2022-10-26T18:34:13;99944.75;;;22.52;nan
24666;BME280;29726;53.532;-1.478;2022-10-26T18:36:39;99952.31;;;22.49;nan
24666;BME280;29726;53.532;-1.478;2022-10-26T18:39:04;99959.91;;;22.47;nan
24666;BME280;29726;53.532;-1.478;2022-10-26T18:41:30;99954.03;;;22.45;nan
24666;BME280;29726;53.532;-1.478;2022-10-26T18:43:56;99969.00;;;22.45;nan
24666;BME280;29726;53.532;-1.478;2022-10-26T18:46:30;99961.03;;;22.44;nan
24666;BME280;29726;53.532;-1.478;2022-10-26T18:48:57;99962.16;;;22.41;nan
24666;BME280;29726;53.532;-1.478;2022-10-26T18:51:28;99962.72;;;22.39;nan
24666;BME280;29726;53.532;-1.478;2022-10-26T18:53:55;99971.06;;;22.37;nan
24666;BME280;29726;53.532;-1.478;2022-10-26T18:56:21;99964.94;;;22.33;nan
24666;BME280;29726;53.532;-1.478;2022-10-26T18:58:49;99966.25;;;22.32;nan
24666;BME280;29726;53.532;-1.478;2022-10-26T19:03:43;99970.78;;;22.28;nan
24666;BME280;29726;53.532;-1.478;2022-10-26T19:06:14;99965.66;;;22.26;nan
24666;BME280;29726;53.532;-1.478;2022-10-26T19:08:40;99966.38;;;22.19;nan
24666;BME280;29726;53.532;-1.478;2022-10-26T19:11:08;99986.47;;;22.21;nan
24666;BME280;29726;53.532;-1.478;2022-10-26T19:13:34;99996.91;;;22.19;nan
24666;BME280;29726;53.532;-1.478;2022-10-26T19:16:01;99988.19;;;22.17;nan
24666;BME280;29726;53.532;-1.478;2022-10-26T19:18:27;99996.28;;;22.13;nan
24666;BME280;29726;53.532;-1.478;2022-10-26T19:21:15;100010.50;;;22.13;nan
24666;BME280;29726;53.532;-1.478;2022-10-26T19:23:52;100005.94;;;22.10;nan
24666;BME280;29726;53.532;-1.478;2022-10-26T19:26:21;100000.06;;;22.08;nan
24666;BME280;29726;53.532;-1.478;2022-10-26T19:28:52;100004.03;;;22.05;nan
24666;BME280;29726;53.532;-1.478;2022-10-26T19:31:19;100004.56;;;22.03;nan
24666;BME280;29726;53.532;-1.478;2022-10-26T19:33:45;99998.06;;;21.96;nan
24666;BME280;29726;53.532;-1.478;2022-10-26T19:36:11;100006.25;;;21.99;nan
24666;BME280;29726;53.532;-1.478;2022-10-26T19:38:36;100006.06;;;21.97;nan
24666;BME280;29726;53.532;-1.478;2022-10-26T19:41:04;100011.34;;;21.93;nan
24666;BME280;29726;53.532;-1.478;2022-10-26T19:43:31;99999.53;;;21.89;nan
24666;BME280;29726;53.532;-1.478;2022-10-26T19:46:04;100009.59;;;21.90;nan
24666;BME280;29726;53.532;-1.478;2022-10-26T19:48:30;100014.88;;;21.86;nan
24666;BME280;29726;53.532;-1.478;2022-10-26T19:50:56;100023.41;;;21.86;nan
24666;BME280;29726;53.532;-1.478;2022-10-26T19:53:22;100015.59;;;21.79;nan
24666;BME280;29726;53.532;-1.478;2022-10-26T19:55:52;100015.78;;;21.81;nan
24666;BME280;29726;53.532;-1.478;2022-10-26T19:58:18;100021.28;;;21.79;nan
24666;BME280;29726;53.532;-1.478;2022-10-26T20:00:44;100024.66;;;21.78;nan
24666;BME280;29726;53.532;-1.478;2022-10-26T20:03:10;100023.72;;;21.75;nan
24666;BME280;29726;53.532;-1.478;2022-10-26T20:05:40;100035.63;;;21.74;nan
24666;BME280;29726;53.532;-1.478;2022-10-26T20:08:09;100029.72;;;21.72;nan
24666;BME280;29726;53.532;-1.478;2022-10-26T20:10:42;100037.06;;;21.67;nan
24666;BME280;29726;53.532;-1.478;2022-10-26T20:13:12;100042.56;;;21.65;nan
24666;BME280;29726;53.532;-1.478;2022-10-26T20:15:38;100046.28;;;21.60;nan
24666;BME280;29726;53.532;-1.478;2022-10-26T20:18:04;100047.03;;;21.61;nan
24666;BME280;29726;53.532;-1.478;2022-10-26T20:20:30;100056.13;;;21.59;nan
24666;BME280;29726;53.532;-1.478;2022-10-26T20:22:57;100053.06;;;21.57;nan
24666;BME280;29726;53.532;-1.478;2022-10-26T20:25:23;100059.28;;;21.56;nan
24666;BME280;29726;53.532;-1.478;2022-10-26T20:27:48;100069.50;;;21.51;nan
24666;BME280;29726;53.532;-1.478;2022-10-26T20:30:14;100063.59;;;21.49;nan
24666;BME280;29726;53.532;-1.478;2022-10-26T20:32:39;100057.72;;;21.47;nan
24666;BME280;29726;53.532;-1.478;2022-10-26T20:35:05;100064.47;;;21.44;nan
24666;BME280;29726;53.532;-1.478;2022-10-26T20:37:31;100058.59;;;21.42;nan
24666;BME280;29726;53.532;-1.478;2022-10-26T20:39:56;100058.97;;;21.39;nan
24666;BME280;29726;53.532;-1.478;2022-10-26T20:42:24;100063.66;;;21.36;nan
24666;BME280;29726;53.532;-1.478;2022-10-26T20:45:01;100072.72;;;21.35;nan
24666;BME280;29726;53.532;-1.478;2022-10-26T20:47:28;100073.28;;;21.33;nan
24666;BME280;29726;53.532;-1.478;2022-10-26T20:49:53;100080.06;;;21.30;nan
24666;BME280;29726;53.532;-1.478;2022-10-26T20:52:21;100065.00;;;21.22;nan
24666;BME280;29726;53.532;-1.478;2022-10-26T20:55:04;100076.81;;;21.26;nan
24666;BME280;29726;53.532;-1.478;2022-10-26T20:57:31;100068.66;;;21.10;nan
24666;BME280;29726;53.532;-1.478;2022-10-26T21:00:05;100073.59;;;21.09;nan
24666;BME280;29726;53.532;-1.478;2022-10-26T21:02:33;100095.63;;;21.16;nan
24666;BME280;29726;53.532;-1.478;2022-10-26T21:04:59;100104.34;;;21.18;nan
24666;BME280;29726;53.532;-1.478;2022-10-26T21:07:24;100105.22;;;21.13;nan
24666;BME280;29726;53.532;-1.478;2022-10-26T21:09:50;100098.34;;;21.09;nan
24666;BME280;29726;53.532;-1.478;2022-10-26T21:12:15;100114.84;;;21.10;nan
24666;BME280;29726;53.532;-1.478;2022-10-26T21:14:41;100111.25;;;21.10;nan
24666;BME280;29726;53.532;-1.478;2022-10-26T21:17:07;100130.91;;;21.08;nan
24666;BME280;29726;53.532;-1.478;2022-10-26T21:19:32;100124.59;;;21.02;nan
24666;BME280;29726;53.532;-1.478;2022-10-26T21:21:58;100137.47;;;21.03;nan
24666;BME280;29726;53.532;-1.478;2022-10-26T21:24:23;100142.19;;;21.00;nan
24666;BME280;29726;53.532;-1.478;2022-10-26T21:26:48;100148.19;;;20.97;nan
24666;BME280;29726;53.532;-1.478;2022-10-26T21:29:14;100148.19;;;20.97;nan
24666;BME280;29726;53.532;-1.478;2022-10-26T21:31:40;100152.34;;;20.96;nan
24666;BME280;29726;53.532;-1.478;2022-10-26T21:34:06;100157.78;;;20.94;nan
24666;BME280;29726;53.532;-1.478;2022-10-26T21:36:31;100154.19;;;20.93;nan
24666;BME280;29726;53.532;-1.478;2022-10-26T21:38:56;100145.03;;;20.87;nan
24666;BME280;29726;53.532;-1.478;2022-10-26T21:41:22;100145.25;;;20.89;nan
24666;BME280;29726;53.532;-1.478;2022-10-26T21:43:48;100137.38;;;20.82;nan
24666;BME280;29726;53.532;-1.478;2022-10-26T21:46:16;100147.09;;;20.87;nan
24666;BME280;29726;53.532;-1.478;2022-10-26T21:48:42;100144.81;;;20.85;nan
24666;BME280;29726;53.532;-1.478;2022-10-26T21:51:18;100160.84;;;20.83;nan
24666;BME280;29726;53.532;-1.478;2022-10-26T21:53:45;100152.97;;;20.76;nan
24666;BME280;29726;53.532;-1.478;2022-10-26T21:56:16;100154.72;;;20.79;nan
24666;BME280;29726;53.532;-1.478;2022-10-26T21:58:42;100167.38;;;20.78;nan
24666;BME280;29726;53.532;-1.478;2022-10-26T22:01:10;100169.22;;;20.75;nan
24666;BME280;29726;53.532;-1.478;2022-10-26T22:03:37;100165.41;;;20.73;nan
24666;BME280;29726;53.532;-1.478;2022-10-26T22:06:04;100171.41;;;20.69;nan
24666;BME280;29726;53.532;-1.478;2022-10-26T22:08:30;100150.81;;;20.69;nan
24666;BME280;29726;53.532;-1.478;2022-10-26T22:10:56;100154.94;;;20.68;nan
24666;BME280;29726;53.532;-1.478;2022-10-26T22:13:21;100154.84;;;20.60;nan
24666;BME280;29726;53.532;-1.478;2022-10-26T22:15:47;100162.47;;;20.65;nan
24666;BME280;29726;53.532;-1.478;2022-10-26T22:18:12;100164.31;;;20.63;nan
24666;BME280;29726;53.532;-1.478;2022-10-26T22:20:38;100164.22;;;20.55;nan
24666;BME280;29726;53.532;-1.478;2022-10-26T22:23:03;100158.97;;;20.59;nan
24666;BME280;29726;53.532;-1.478;2022-10-26T22:25:32;100169.53;;;20.59;nan
24666;BME280;29726;53.532;-1.478;2022-10-26T22:27:57;100154.41;;;20.56;nan
24666;BME280;29726;53.532;-1.478;2022-10-26T22:30:23;100152.09;;;20.55;nan
24666;BME280;29726;53.532;-1.478;2022-10-26T22:32:48;100144.69;;;20.52;nan
24666;BME280;29726;53.532;-1.478;2022-10-26T22:35:14;100153.19;;;20.52;nan
24666;BME280;29726;53.532;-1.478;2022-10-26T22:37:42;100167.16;;;20.50;nan
24666;BME280;29726;53.532;-1.478;2022-10-26T22:40:08;100153.84;;;20.45;nan
24666;BME280;29726;53.532;-1.478;2022-10-26T22:42:34;100167.47;;;20.46;nan
24666;BME280;29726;53.532;-1.478;2022-10-26T22:44:59;100183.72;;;20.46;nan
24666;BME280;29726;53.532;-1.478;2022-10-26T22:47:25;100177.06;;;20.43;nan